createdAt,value
2019-04-10T00:00:24.166Z,87.70
2019-04-10T00:01:24.194Z,101.80
2019-04-10T00:02:24.225Z,89.90
2019-04-10T00:03:32.331Z,80.30
2019-04-10T00:04:25.197Z,75.80
2019-04-10T00:05:24.313Z,54.90
2019-04-10T00:06:24.343Z,53.60
2019-04-10T00:07:24.372Z,70.70
2019-04-10T00:08:24.402Z,74.90
2019-04-10T00:09:25.269Z,69.50
2019-04-10T00:10:24.666Z,58.70
2019-04-10T00:11:24.916Z,65.30
2019-04-10T00:12:25.432Z,57.90
2019-04-10T00:13:24.732Z,65.60
2019-04-10T00:14:24.579Z,66.70
2019-04-10T00:15:24.609Z,67.10
2019-04-10T00:16:24.650Z,66.20
2019-04-10T00:17:25.010Z,70.30
2019-04-10T00:18:24.697Z,64.20
2019-04-10T00:19:24.725Z,68.50
2019-04-10T00:20:24.755Z,62.70
2019-04-10T00:21:25.189Z,82.80
2019-04-10T00:22:24.814Z,69.60
2019-04-10T00:23:24.858Z,57.90
2019-04-10T00:24:24.873Z,66.90
2019-04-10T00:25:24.902Z,88.80
2019-04-10T00:26:25.737Z,117.00
2019-04-10T00:27:24.963Z,87.30
2019-04-10T00:28:25.521Z,98.40
2019-04-10T00:29:25.021Z,83.40
2019-04-10T00:30:25.125Z,91.20
2019-04-10T00:31:26.404Z,93.60
2019-04-10T00:32:25.108Z,82.80
2019-04-10T00:33:25.137Z,81.10
2019-04-10T00:34:25.424Z,79.70
2019-04-10T00:35:25.581Z,84.20
2019-04-10T00:36:25.227Z,78.70
2019-04-10T00:37:28.442Z,87.40
2019-04-10T00:38:26.096Z,83.30
2019-04-10T00:39:25.348Z,80.00
2019-04-10T00:40:25.637Z,77.60
2019-04-10T00:41:25.373Z,67.80
2019-04-10T00:42:26.083Z,73.00
2019-04-10T00:43:26.614Z,71.20
2019-04-10T00:44:25.834Z,65.90
2019-04-10T00:45:25.493Z,59.80
2019-04-10T00:46:26.301Z,69.80
2019-04-10T00:47:26.660Z,68.60
2019-04-10T00:48:25.968Z,79.30
2019-04-10T00:49:25.996Z,76.80
2019-04-10T00:50:26.561Z,78.40
2019-04-10T00:51:25.667Z,76.00
2019-04-10T00:52:25.698Z,74.00
2019-04-10T00:53:25.725Z,77.30
2019-04-10T00:54:25.816Z,70.50
2019-04-10T00:55:25.893Z,80.60
2019-04-10T00:56:26.308Z,74.70
2019-04-10T00:57:25.844Z,82.20
2019-04-10T00:58:25.967Z,72.00
2019-04-10T00:59:26.211Z,71.10
2019-04-10T01:00:25.931Z,69.30
2019-04-10T01:01:25.961Z,90.30
2019-04-10T01:02:26.884Z,90.60
2019-04-10T01:03:26.026Z,80.00
2019-04-10T01:04:26.611Z,89.30
2019-04-10T01:05:27.009Z,93.00
2019-04-10T01:06:26.214Z,87.90
2019-04-10T01:07:35.701Z,82.90
2019-04-10T01:08:26.671Z,74.90
2019-04-10T01:09:26.196Z,86.50
2019-04-10T01:10:26.304Z,93.20
2019-04-10T01:11:27.179Z,91.10
2019-04-10T01:12:26.287Z,97.10
2019-04-10T01:13:27.139Z,87.10
2019-04-10T01:14:26.534Z,83.70
2019-04-10T01:15:26.689Z,90.10
2019-04-10T01:16:27.190Z,92.60
2019-04-10T01:17:26.433Z,100.50
2019-04-10T01:18:26.814Z,106.80
2019-04-10T01:19:26.491Z,94.60
2019-04-10T01:20:26.522Z,106.50
2019-04-10T01:21:26.550Z,98.60
2019-04-10T01:22:27.485Z,104.40
2019-04-10T01:23:26.793Z,113.60
2019-04-10T01:24:26.947Z,106.70
2019-04-10T01:25:26.668Z,82.30
2019-04-10T01:26:28.052Z,75.00
2019-04-10T01:27:27.704Z,82.00
2019-04-10T01:28:26.935Z,88.40
2019-04-10T01:29:27.277Z,82.50
2019-04-10T01:30:26.813Z,86.40
2019-04-10T01:31:26.911Z,99.90
2019-04-10T01:32:27.912Z,94.50
2019-04-10T01:33:26.902Z,89.10
2019-04-10T01:34:27.525Z,104.80
2019-04-10T01:35:26.960Z,91.10
2019-04-10T01:36:27.045Z,80.20
2019-04-10T01:37:27.022Z,83.60
2019-04-10T01:38:27.251Z,80.70
2019-04-10T01:39:28.438Z,97.10
2019-04-10T01:40:27.107Z,103.00
2019-04-10T01:41:27.843Z,97.30
2019-04-10T01:42:28.303Z,109.80
2019-04-10T01:43:27.196Z,86.00
2019-04-10T01:44:27.226Z,91.40
2019-04-10T01:45:27.339Z,94.40
2019-04-10T01:46:28.415Z,95.90
2019-04-10T01:47:27.314Z,88.60
2019-04-10T01:48:27.969Z,95.70
2019-04-10T01:49:27.374Z,97.70
2019-04-10T01:50:28.410Z,91.40
2019-04-10T01:51:27.557Z,76.20
2019-04-10T01:52:27.460Z,86.50
2019-04-10T01:53:28.029Z,103.10
2019-04-10T01:54:27.554Z,90.30
2019-04-10T01:55:29.866Z,91.10
2019-04-10T01:56:31.878Z,93.30
2019-04-10T01:57:28.424Z,76.50
2019-04-10T01:58:27.638Z,85.60
2019-04-10T01:59:27.833Z,82.10
2019-04-10T02:00:27.845Z,81.70
2019-04-10T02:01:28.335Z,93.00
2019-04-10T02:02:27.756Z,94.90
2019-04-10T02:03:27.787Z,88.80
2019-04-10T02:04:28.880Z,85.30
2019-04-10T02:05:28.259Z,88.70
2019-04-10T02:06:27.874Z,92.00
2019-04-10T02:07:27.903Z,82.50
2019-04-10T02:08:27.933Z,80.40
2019-04-10T02:09:27.964Z,86.10
2019-04-10T02:10:28.046Z,78.40
2019-04-10T02:11:28.137Z,82.60
2019-04-10T02:12:28.399Z,71.10
2019-04-10T02:13:28.082Z,71.30
2019-04-10T02:14:28.111Z,76.70
2019-04-10T02:15:28.144Z,93.70
2019-04-10T02:16:28.171Z,75.00
2019-04-10T02:17:28.592Z,73.30
2019-04-10T02:18:28.229Z,76.10
2019-04-10T02:19:28.261Z,78.20
2019-04-10T02:20:29.161Z,73.20
2019-04-10T02:21:28.319Z,75.10
2019-04-10T02:22:28.739Z,78.50
2019-04-10T02:23:28.379Z,76.50
2019-04-10T02:24:29.339Z,70.10
2019-04-10T02:25:28.500Z,80.10
2019-04-10T02:26:29.429Z,92.40
2019-04-10T02:27:28.495Z,89.10
2019-04-10T02:28:29.122Z,108.50
2019-04-10T02:29:28.553Z,106.00
2019-04-10T02:30:30.217Z,119.30
2019-04-10T02:31:30.615Z,129.20
2019-04-10T02:32:28.874Z,138.80
2019-04-10T02:33:29.390Z,131.20
2019-04-10T02:34:28.739Z,134.10
2019-04-10T02:35:29.745Z,140.40
2019-04-10T02:36:29.812Z,140.50
2019-04-10T02:37:28.791Z,164.70
2019-04-10T02:38:47.472Z,166.80
2019-04-10T02:39:37.401Z,183.20
2019-04-10T02:40:28.979Z,185.40
2019-04-10T02:41:29.891Z,185.00
2019-04-10T02:42:30.210Z,185.70
2019-04-10T02:43:29.330Z,175.40
2019-04-10T02:44:30.625Z,177.80
2019-04-10T02:45:30.156Z,188.20
2019-04-10T02:46:29.356Z,168.60
2019-04-10T02:47:30.587Z,157.70
2019-04-10T02:48:29.672Z,173.30
2019-04-10T02:49:29.976Z,161.40
2019-04-10T02:50:29.442Z,157.50
2019-04-10T02:51:30.552Z,150.70
2019-04-10T02:52:30.753Z,147.10
2019-04-10T02:53:29.668Z,143.70
2019-04-10T02:54:29.291Z,146.80
2019-04-10T02:55:29.318Z,143.00
2019-04-10T02:56:30.753Z,142.00
2019-04-10T02:57:29.570Z,149.60
2019-04-10T02:58:29.942Z,156.90
2019-04-10T02:59:29.435Z,147.30
2019-04-10T03:00:30.378Z,158.10
2019-04-10T03:01:29.496Z,163.20
2019-04-10T03:02:31.135Z,151.30
2019-04-10T03:03:30.018Z,154.50
2019-04-10T03:04:33.046Z,145.10
2019-04-10T03:05:30.276Z,158.90
2019-04-10T03:06:31.006Z,142.30
2019-04-10T03:07:29.674Z,137.90
2019-04-10T03:08:50.074Z,139.00
2019-04-10T03:09:46.010Z,135.80
2019-04-10T03:10:40.539Z,130.20
2019-04-10T03:11:31.226Z,129.90
2019-04-10T03:12:30.168Z,131.50
2019-04-10T03:13:31.068Z,134.10
2019-04-10T03:14:30.099Z,133.40
2019-04-10T03:15:31.325Z,134.70
2019-04-10T03:16:29.932Z,144.80
2019-04-10T03:17:30.265Z,140.30
2019-04-10T03:18:30.536Z,149.60
2019-04-10T03:19:30.020Z,132.60
2019-04-10T03:20:30.155Z,146.70
2019-04-10T03:27:22.682Z,174.80
2019-04-10T03:28:22.948Z,191.80
2019-04-10T03:29:22.661Z,193.30
2019-04-10T03:30:23.426Z,181.40
2019-04-10T03:31:24.632Z,198.70
2019-04-10T03:32:23.239Z,197.90
2019-04-10T03:33:27.627Z,178.00
2019-04-10T03:34:25.257Z,192.20
2019-04-10T03:35:22.891Z,201.30
2019-04-10T03:36:23.220Z,201.50
2019-04-10T03:37:22.898Z,196.20
2019-04-10T03:38:23.723Z,190.10
2019-04-10T03:39:23.724Z,215.50
2019-04-10T03:40:23.720Z,199.40
2019-04-10T03:41:24.056Z,181.50
2019-04-10T03:42:23.281Z,182.50
2019-04-10T03:43:23.071Z,203.10
2019-04-10T03:44:23.100Z,201.70
2019-04-10T03:45:24.118Z,217.10
2019-04-10T03:46:23.524Z,204.20
2019-04-10T03:47:23.187Z,214.80
2019-04-10T03:48:23.218Z,210.00
2019-04-10T03:49:23.248Z,220.00
2019-04-10T03:50:23.655Z,225.80
2019-04-10T03:51:23.305Z,239.00
2019-04-10T03:52:23.334Z,203.40
2019-04-10T03:53:24.534Z,214.20
2019-04-10T03:54:23.392Z,212.20
2019-04-10T03:55:23.424Z,215.80
2019-04-10T03:56:23.522Z,217.10
2019-04-10T03:57:24.608Z,226.10
2019-04-10T03:58:23.509Z,221.10
2019-04-10T03:59:24.364Z,195.80
2019-04-10T04:00:23.573Z,209.10
2019-04-10T04:01:23.598Z,185.80
2019-04-10T04:02:23.992Z,204.40
2019-04-10T04:03:24.593Z,223.90
2019-04-10T04:04:23.822Z,225.30
2019-04-10T04:05:23.715Z,228.50
2019-04-10T04:06:23.774Z,244.10
2019-04-10T04:07:25.993Z,242.30
2019-04-10T04:08:23.803Z,208.40
2019-04-10T04:09:23.840Z,232.90
2019-04-10T04:10:24.595Z,217.10
2019-04-10T04:11:23.932Z,238.80
2019-04-10T04:12:23.922Z,237.50
2019-04-10T04:13:23.949Z,243.90
2019-04-10T04:14:24.233Z,243.70
2019-04-10T04:15:24.068Z,236.00
2019-04-10T04:16:24.713Z,255.70
2019-04-10T04:17:24.236Z,239.60
2019-04-10T04:18:24.857Z,244.80
2019-04-10T04:19:24.151Z,225.30
2019-04-10T04:20:24.154Z,243.80
2019-04-10T04:21:24.185Z,227.60
2019-04-10T04:22:25.012Z,239.80
2019-04-10T04:23:24.242Z,232.00
2019-04-10T04:24:25.497Z,253.10
2019-04-10T04:25:24.301Z,246.20
2019-04-10T04:26:25.232Z,235.40
2019-04-10T04:27:25.017Z,239.60
2019-04-10T04:28:24.389Z,239.60
2019-04-10T04:29:24.730Z,234.70
2019-04-10T04:30:24.719Z,222.90
2019-04-10T04:31:24.957Z,212.20
2019-04-10T04:32:24.510Z,227.90
2019-04-10T04:33:24.535Z,242.50
2019-04-10T04:34:25.034Z,234.40
2019-04-10T04:35:25.612Z,208.90
2019-04-10T04:36:24.680Z,228.40
2019-04-10T04:37:24.661Z,239.10
2019-04-10T04:38:25.636Z,221.30
2019-04-10T04:39:26.979Z,209.90
2019-04-10T04:40:25.812Z,217.50
2019-04-10T04:41:25.334Z,221.60
2019-04-10T04:42:24.799Z,238.60
2019-04-10T04:43:25.113Z,231.30
2019-04-10T04:44:24.857Z,236.00
2019-04-10T04:45:25.685Z,227.90
2019-04-10T04:46:26.015Z,231.20
2019-04-10T04:47:24.951Z,228.40
2019-04-10T04:48:24.976Z,214.80
2019-04-10T04:49:25.004Z,215.30
2019-04-10T04:50:25.034Z,198.70
2019-04-10T04:51:25.985Z,188.60
2019-04-10T04:52:25.850Z,202.60
2019-04-10T04:53:26.052Z,183.80
2019-04-10T04:54:25.508Z,189.10
2019-04-10T04:55:26.070Z,200.20
2019-04-10T04:56:26.134Z,217.70
2019-04-10T04:57:25.239Z,239.40
2019-04-10T04:58:26.154Z,221.90
2019-04-10T04:59:26.157Z,223.30
2019-04-10T05:00:25.776Z,216.70
2019-04-10T05:01:25.357Z,192.00
2019-04-10T05:02:26.192Z,210.50
2019-04-10T05:03:25.730Z,195.50
2019-04-10T05:04:25.443Z,194.70
2019-04-10T05:05:25.472Z,168.00
2019-04-10T05:06:26.467Z,169.20
2019-04-10T05:07:25.532Z,161.60
2019-04-10T05:08:26.056Z,146.90
2019-04-10T05:09:33.095Z,138.60
2019-04-10T05:10:25.617Z,145.40
2019-04-10T05:11:26.590Z,114.40
2019-04-10T05:12:25.677Z,123.10
2019-04-10T05:13:26.400Z,100.90
2019-04-10T05:14:25.735Z,111.20
2019-04-10T05:15:26.902Z,113.80
2019-04-10T05:16:25.794Z,101.40
2019-04-10T05:17:25.823Z,101.00
2019-04-10T05:18:25.853Z,128.00
2019-04-10T05:19:25.882Z,117.40
2019-04-10T05:20:38.791Z,96.30
2019-04-10T05:21:25.943Z,97.60
2019-04-10T05:22:26.481Z,110.20
2019-04-10T05:23:26.583Z,106.50
2019-04-10T05:24:26.031Z,110.90
2019-04-10T05:25:26.056Z,87.40
2019-04-10T05:26:26.086Z,80.40
2019-04-10T05:27:26.650Z,66.80
2019-04-10T05:28:26.396Z,73.70
2019-04-10T05:29:29.107Z,67.80
2019-04-10T05:30:27.197Z,66.00
2019-04-10T05:31:26.234Z,59.30
2019-04-10T05:32:26.261Z,58.80
2019-04-10T05:33:26.781Z,65.80
2019-04-10T05:34:27.296Z,59.70
2019-04-10T05:35:26.348Z,59.80
2019-04-10T05:36:26.379Z,56.10
2019-04-10T05:37:27.476Z,47.20
2019-04-10T05:38:27.064Z,49.30
2019-04-10T05:39:27.855Z,54.30
2019-04-10T05:40:26.495Z,55.20
2019-04-10T05:41:26.523Z,62.30
2019-04-10T05:42:26.866Z,55.40
2019-04-10T05:43:26.589Z,58.40
2019-04-10T05:44:27.652Z,61.30
2019-04-10T05:45:27.661Z,53.50
2019-04-10T05:46:26.670Z,49.00
2019-04-10T05:47:26.699Z,44.00
2019-04-10T05:48:27.834Z,42.70
2019-04-10T05:49:26.908Z,45.50
2019-04-10T05:50:27.767Z,43.60
2019-04-10T05:51:26.818Z,47.20
2019-04-10T05:52:26.847Z,46.70
2019-04-10T05:53:26.875Z,43.40
2019-04-10T05:54:27.033Z,46.70
2019-04-10T05:55:26.935Z,45.90
2019-04-10T05:56:27.952Z,50.20
2019-04-10T05:57:26.992Z,46.20
2019-04-10T05:58:27.023Z,44.70
2019-04-10T05:59:28.080Z,47.80
2019-04-10T06:00:27.101Z,48.60
2019-04-10T06:01:35.349Z,45.60
2019-04-10T06:02:27.196Z,47.10
2019-04-10T06:03:28.178Z,37.50
2019-04-10T06:04:27.500Z,39.60
2019-04-10T06:08:28.182Z,36.90
2019-04-10T06:09:28.946Z,52.70
2019-04-10T06:10:28.242Z,41.10
2019-04-10T06:11:28.857Z,40.80
2019-04-10T06:12:28.551Z,51.30
2019-04-10T06:13:28.328Z,41.60
2019-04-10T06:14:28.380Z,46.60
2019-04-10T06:15:28.766Z,43.80
2019-04-10T06:16:28.438Z,42.60
2019-04-10T06:17:28.447Z,44.60
2019-04-10T06:18:29.235Z,43.20
2019-04-10T06:19:28.871Z,38.40
2019-04-10T06:20:29.239Z,40.90
2019-04-10T06:21:29.858Z,41.20
2019-04-10T06:22:28.597Z,46.40
2019-04-10T06:23:29.600Z,43.10
2019-04-10T06:24:28.650Z,54.60
2019-04-10T06:25:29.457Z,54.80
2019-04-10T06:26:29.903Z,38.40
2019-04-10T06:27:28.737Z,44.60
2019-04-10T06:28:30.587Z,44.00
2019-04-10T06:29:28.917Z,50.40
2019-04-10T06:30:30.064Z,45.10
2019-04-10T06:31:28.858Z,57.40
2019-04-10T06:32:29.573Z,52.10
2019-04-10T06:33:28.914Z,42.40
2019-04-10T06:34:30.063Z,34.80
2019-04-10T06:35:30.133Z,40.60
2019-04-10T06:36:29.212Z,37.50
2019-04-10T06:37:29.032Z,37.10
2019-04-10T06:38:29.061Z,40.30
2019-04-10T06:39:29.093Z,47.60
2019-04-10T06:40:30.524Z,42.50
2019-04-10T06:41:29.149Z,39.90
2019-04-10T06:42:29.568Z,43.60
2019-04-10T06:43:29.209Z,46.60
2019-04-10T06:44:30.121Z,50.80
2019-04-10T06:45:29.269Z,46.70
2019-04-10T06:46:29.296Z,49.00
2019-04-10T06:47:29.326Z,48.90
2019-04-10T06:48:29.382Z,36.80
2019-04-10T06:49:29.390Z,37.70
2019-04-10T06:50:30.086Z,34.60
2019-04-10T06:51:29.454Z,38.90
2019-04-10T06:52:30.397Z,34.70
2019-04-10T06:53:29.503Z,35.00
2019-04-10T06:54:29.533Z,38.50
2019-04-10T06:55:30.156Z,47.00
2019-04-10T06:56:29.590Z,49.80
2019-04-10T06:57:30.510Z,50.20
2019-04-10T06:58:29.799Z,48.10
2019-04-10T06:59:30.473Z,54.20
2019-04-10T07:00:30.653Z,46.40
2019-04-10T07:01:40.451Z,36.90
2019-04-10T07:02:31.602Z,39.70
2019-04-10T07:03:45.784Z,38.30
2019-04-10T07:04:42.269Z,37.80
2019-04-10T07:05:40.022Z,45.70
2019-04-10T07:06:44.643Z,39.40
2019-04-10T07:07:42.336Z,49.40
2019-04-10T07:08:30.012Z,43.90
2019-04-10T07:09:30.030Z,41.70
2019-04-10T07:10:43.753Z,40.20
2019-04-10T07:11:32.243Z,46.00
2019-04-10T07:12:33.545Z,39.80
2019-04-10T07:13:30.233Z,42.10
2019-04-10T07:14:30.119Z,44.80
2019-04-10T07:15:30.149Z,35.60
2019-04-10T07:16:32.605Z,36.00
2019-04-10T07:17:30.229Z,37.10
2019-04-10T07:18:30.456Z,36.50
2019-04-10T07:19:30.414Z,44.90
2019-04-10T07:20:30.295Z,42.30
2019-04-10T07:21:32.911Z,44.40
2019-04-10T07:22:31.139Z,51.00
2019-04-10T07:23:31.964Z,43.00
2019-04-10T07:24:34.486Z,44.70
2019-04-10T07:25:30.443Z,52.90
2019-04-10T07:26:37.983Z,49.70
2019-04-10T07:27:32.772Z,56.50
2019-04-10T07:28:30.533Z,55.80
2019-04-10T07:29:31.130Z,53.10
2019-04-10T07:30:31.770Z,50.20
2019-04-10T07:31:34.987Z,53.60
2019-04-10T07:32:30.928Z,59.90
2019-04-10T07:33:30.928Z,60.30
2019-04-10T07:34:30.710Z,59.30
2019-04-10T07:35:33.725Z,67.40
2019-04-10T07:36:30.800Z,60.40
2019-04-10T07:37:31.915Z,62.20
2019-04-10T07:38:30.966Z,64.20
2019-04-10T07:39:33.475Z,64.40
2019-04-10T07:40:34.947Z,65.00
2019-04-10T07:41:31.515Z,62.30
2019-04-10T07:42:36.937Z,59.70
2019-04-10T07:43:32.067Z,61.90
2019-04-10T07:44:31.006Z,69.10
2019-04-10T07:45:31.037Z,64.70
2019-04-10T07:46:31.301Z,60.90
2019-04-10T07:47:31.425Z,65.20
2019-04-10T07:48:31.458Z,64.40
2019-04-10T07:49:31.812Z,70.20
2019-04-10T07:50:31.264Z,65.00
2019-04-10T07:51:31.907Z,56.00
2019-04-10T07:52:31.250Z,56.70
2019-04-10T07:53:31.276Z,58.50
2019-04-10T07:54:31.309Z,53.50
2019-04-10T07:55:31.336Z,43.40
2019-04-10T07:56:31.365Z,44.90
2019-04-10T07:57:31.396Z,42.40
2019-04-10T07:58:31.426Z,48.20
2019-04-10T07:59:31.455Z,46.60
2019-04-10T08:00:32.039Z,44.60
2019-04-10T08:01:31.516Z,43.00
2019-04-10T08:02:31.795Z,46.90
2019-04-10T08:03:31.575Z,51.20
2019-04-10T08:04:31.606Z,46.10
2019-04-10T08:05:31.635Z,53.30
2019-04-10T08:06:31.665Z,53.30
2019-04-10T08:07:35.754Z,48.20
2019-04-10T08:08:31.726Z,41.60
2019-04-10T08:09:31.756Z,45.60
2019-04-10T08:10:32.744Z,51.00
2019-04-10T08:11:31.816Z,48.90
2019-04-10T08:12:40.563Z,49.90
2019-04-10T08:13:32.994Z,51.20
2019-04-10T08:14:31.907Z,50.90
2019-04-10T08:15:31.935Z,48.20
2019-04-10T08:16:32.893Z,43.30
2019-04-10T08:17:32.478Z,41.40
2019-04-10T08:18:32.025Z,41.50
2019-04-10T08:19:32.796Z,35.60
2019-04-10T08:20:32.688Z,39.40
2019-04-10T08:21:32.151Z,36.80
2019-04-10T08:22:32.825Z,36.70
2019-04-10T08:23:32.176Z,39.10
2019-04-10T08:24:32.315Z,33.30
2019-04-10T08:25:33.230Z,37.10
2019-04-10T08:26:32.541Z,39.20
2019-04-10T08:27:32.294Z,42.00
2019-04-10T08:28:32.767Z,37.50
2019-04-10T08:29:32.430Z,37.60
2019-04-10T08:30:32.386Z,31.70
2019-04-10T08:31:32.896Z,32.90
2019-04-10T08:32:40.536Z,30.90
2019-04-10T08:33:32.476Z,33.80
2019-04-10T08:34:33.571Z,33.80
2019-04-10T08:35:33.387Z,32.20
2019-04-10T08:36:32.592Z,30.30
2019-04-10T08:37:32.645Z,29.00
2019-04-10T08:38:32.644Z,28.20
2019-04-10T08:39:40.237Z,26.20
2019-04-10T08:40:32.687Z,30.70
2019-04-10T08:41:33.047Z,23.40
2019-04-10T08:42:33.195Z,22.70
2019-04-10T08:43:34.017Z,23.60
2019-04-10T08:44:33.003Z,22.70
2019-04-10T08:45:40.633Z,25.60
2019-04-10T08:46:33.641Z,25.80
2019-04-10T08:47:33.443Z,25.70
2019-04-10T08:48:33.104Z,28.10
2019-04-10T08:49:32.959Z,27.40
2019-04-10T08:50:32.989Z,25.00
2019-04-10T08:51:33.216Z,22.00
2019-04-10T08:52:33.048Z,23.80
2019-04-10T08:53:34.069Z,15.60
2019-04-10T08:54:34.280Z,17.30
2019-04-10T08:55:33.433Z,20.80
2019-04-10T08:56:33.368Z,15.90
2019-04-10T08:57:34.165Z,14.40
2019-04-10T08:58:33.232Z,18.50
2019-04-10T08:59:33.994Z,21.40
2019-04-10T09:00:34.328Z,27.50
2019-04-10T09:01:33.522Z,24.00
2019-04-10T09:02:33.876Z,19.70
2019-04-10T09:03:33.382Z,22.10
2019-04-10T09:04:33.667Z,21.00
2019-04-10T09:05:33.443Z,22.40
2019-04-10T09:06:33.648Z,22.60
2019-04-10T09:07:33.505Z,26.10
2019-04-10T09:08:33.546Z,22.70
2019-04-10T09:09:33.943Z,24.90
2019-04-10T09:10:34.440Z,25.00
2019-04-10T09:11:34.029Z,22.70
2019-04-10T09:12:33.750Z,27.00
2019-04-10T09:13:34.680Z,31.10
2019-04-10T09:14:34.944Z,36.80
2019-04-10T09:15:34.187Z,37.90
2019-04-10T09:16:34.288Z,35.90
2019-04-10T09:17:33.811Z,40.90
2019-04-10T09:18:33.841Z,36.70
2019-04-10T09:19:34.071Z,38.40
2019-04-10T09:20:34.983Z,46.40
2019-04-10T09:21:34.645Z,56.90
2019-04-10T09:22:55.190Z,61.00
2019-04-10T09:23:42.564Z,69.30
2019-04-10T09:24:34.174Z,54.30
2019-04-10T09:25:35.274Z,55.40
2019-04-10T09:26:34.087Z,55.80
2019-04-10T09:27:34.116Z,64.50
2019-04-10T09:28:34.805Z,69.60
2019-04-10T09:29:34.182Z,80.60
2019-04-10T09:30:35.278Z,79.70
2019-04-10T09:31:34.239Z,71.30
2019-04-10T09:32:34.718Z,65.20
2019-04-10T09:33:34.853Z,69.40
2019-04-10T09:34:34.329Z,66.40
2019-04-10T09:35:34.362Z,67.90
2019-04-10T09:36:35.429Z,72.30
2019-04-10T09:37:34.545Z,78.00
2019-04-10T09:38:34.861Z,73.60
2019-04-10T09:39:34.484Z,70.80
2019-04-10T09:40:34.522Z,72.90
2019-04-10T09:41:34.545Z,82.20
2019-04-10T09:42:35.430Z,80.70
2019-04-10T09:43:35.692Z,77.70
2019-04-10T09:44:35.833Z,69.90
2019-04-10T09:45:35.017Z,73.60
2019-04-10T09:46:35.304Z,82.90
2019-04-10T09:47:34.878Z,69.20
2019-04-10T09:48:35.771Z,68.50
2019-04-10T09:49:40.344Z,76.40
2019-04-10T09:50:35.405Z,70.10
2019-04-10T09:51:34.854Z,67.40
2019-04-10T09:52:35.656Z,74.90
2019-04-10T09:53:35.212Z,62.70
2019-04-10T09:54:34.969Z,57.10
2019-04-10T09:55:34.968Z,61.60
2019-04-10T09:56:34.999Z,60.60
2019-04-10T09:57:35.028Z,61.10
2019-04-10T09:58:35.092Z,64.30
2019-04-10T09:59:36.954Z,69.10
2019-04-10T10:00:36.040Z,69.50
2019-04-10T10:01:35.837Z,74.20
2019-04-10T10:02:35.782Z,79.40
2019-04-10T10:03:35.225Z,74.00
2019-04-10T10:04:35.238Z,80.10
2019-04-10T10:05:35.269Z,77.10
2019-04-10T10:06:36.978Z,80.40
2019-04-10T10:07:35.331Z,84.50
2019-04-10T10:08:35.930Z,85.40
2019-04-10T10:09:35.650Z,86.50
2019-04-10T10:10:36.816Z,86.70
2019-04-10T10:11:36.376Z,78.10
2019-04-10T10:12:36.434Z,79.60
2019-04-10T10:13:35.509Z,77.10
2019-04-10T10:14:35.839Z,70.80
2019-04-10T10:15:35.654Z,66.50
2019-04-10T10:16:35.872Z,68.20
2019-04-10T10:17:35.651Z,65.90
2019-04-10T10:18:35.659Z,67.30
2019-04-10T10:19:36.317Z,70.10
2019-04-10T10:20:35.719Z,68.10
2019-04-10T10:21:36.602Z,71.70
2019-04-10T10:22:36.933Z,79.40
2019-04-10T10:23:36.087Z,74.60
2019-04-10T10:24:35.838Z,72.20
2019-04-10T10:25:35.871Z,70.00
2019-04-10T10:26:36.481Z,66.20
2019-04-10T10:27:35.930Z,70.30
2019-04-10T10:28:35.972Z,69.70
2019-04-10T10:29:35.989Z,69.00
2019-04-10T10:30:36.021Z,77.20
2019-04-10T10:31:36.140Z,74.80
2019-04-10T10:32:37.184Z,72.00
2019-04-10T10:33:36.112Z,74.10
2019-04-10T10:34:36.723Z,71.00
2019-04-10T10:35:36.171Z,75.20
2019-04-10T10:36:41.441Z,74.10
2019-04-10T10:37:36.648Z,77.30
2019-04-10T10:38:36.989Z,76.90
2019-04-10T10:39:37.087Z,78.50
2019-04-10T10:40:36.372Z,75.20
2019-04-10T10:41:36.353Z,74.40
2019-04-10T10:42:38.460Z,73.60
2019-04-10T10:43:36.415Z,69.40
2019-04-10T10:44:36.444Z,67.40
2019-04-10T10:45:36.726Z,64.70
2019-04-10T10:46:37.657Z,72.70
2019-04-10T10:47:36.534Z,84.30
2019-04-10T10:48:36.566Z,89.00
2019-04-10T10:49:36.830Z,83.40
2019-04-10T10:50:37.272Z,90.80
2019-04-10T10:51:37.095Z,88.00
2019-04-10T10:52:36.685Z,96.20
2019-04-10T10:53:36.718Z,93.20
2019-04-10T10:55:37.728Z,98.40
2019-04-10T10:56:36.807Z,102.80
2019-04-10T10:57:37.476Z,97.90
2019-04-10T10:58:37.587Z,82.50
2019-04-10T10:59:37.725Z,80.60
2019-04-10T11:00:36.953Z,80.90
2019-04-10T11:01:37.962Z,76.20
2019-04-10T11:02:37.958Z,76.90
2019-04-10T11:03:37.022Z,73.50
2019-04-10T11:04:37.859Z,74.90
2019-04-10T11:05:37.232Z,82.50
2019-04-10T11:06:49.525Z,90.90
2019-04-10T11:07:38.671Z,87.10
2019-04-10T11:08:37.375Z,81.10
2019-04-10T11:09:37.202Z,78.80
2019-04-10T11:10:37.232Z,87.40
2019-04-10T11:11:37.262Z,86.80
2019-04-10T11:12:38.397Z,86.60
2019-04-10T11:13:37.324Z,79.70
2019-04-10T11:14:37.354Z,82.80
2019-04-10T11:15:42.106Z,88.30
2019-04-10T11:16:37.414Z,109.70
2019-04-10T11:17:38.429Z,104.50
2019-04-10T11:18:38.027Z,111.30
2019-04-10T11:19:37.533Z,111.90
2019-04-10T11:20:37.536Z,103.70
2019-04-10T11:21:38.970Z,106.30
2019-04-10T11:22:37.750Z,104.10
2019-04-10T11:23:37.668Z,108.20
2019-04-10T11:24:38.329Z,106.80
2019-04-10T11:25:37.860Z,106.70
2019-04-10T11:26:37.730Z,103.40
2019-04-10T11:27:39.202Z,108.60
2019-04-10T11:28:39.157Z,106.30
2019-04-10T11:29:38.938Z,111.50
2019-04-10T11:30:37.838Z,110.40
2019-04-10T11:31:38.242Z,113.80
2019-04-10T11:32:38.287Z,97.20
2019-04-10T11:33:39.716Z,108.50
2019-04-10T11:34:38.209Z,99.70
2019-04-10T11:35:39.522Z,99.60
2019-04-10T11:36:38.021Z,96.90
2019-04-10T11:37:44.438Z,100.20
2019-04-10T11:38:39.705Z,91.70
2019-04-10T11:39:42.894Z,94.50
2019-04-10T11:40:38.925Z,99.30
2019-04-10T11:41:39.414Z,97.60
2019-04-10T11:42:39.976Z,102.70
2019-04-10T11:43:38.235Z,99.70
2019-04-10T11:44:39.603Z,92.80
2019-04-10T11:46:41.449Z,113.30
2019-04-10T11:47:38.852Z,114.20
2019-04-10T11:48:39.232Z,118.00
2019-04-10T11:49:42.799Z,112.70
2019-04-10T11:50:38.657Z,118.30
2019-04-10T11:51:38.880Z,114.10
2019-04-10T11:53:43.964Z,110.90
2019-04-10T11:54:41.369Z,114.00
2019-04-10T11:55:43.797Z,117.50
2019-04-10T11:56:38.632Z,118.40
2019-04-10T11:57:38.665Z,120.50
2019-04-10T11:58:48.948Z,119.20
2019-04-10T11:59:40.905Z,120.10
2019-04-10T12:00:49.260Z,118.00
2019-04-10T12:01:39.382Z,124.00
2019-04-10T12:02:39.653Z,121.30
2019-04-10T12:04:48.167Z,124.70
2019-04-10T12:05:41.243Z,120.60
2019-04-10T12:06:40.303Z,121.10
2019-04-10T12:11:39.277Z,126.70
2019-04-10T12:12:39.121Z,135.90
2019-04-10T12:13:39.154Z,142.60
2019-04-10T12:14:39.633Z,135.10
2019-04-10T12:15:39.236Z,131.70
2019-04-10T12:16:39.248Z,131.90
2019-04-10T12:17:40.203Z,139.40
2019-04-10T12:18:40.483Z,133.00
2019-04-10T12:19:40.463Z,137.10
2019-04-10T12:20:39.374Z,125.90
2019-04-10T12:21:40.004Z,138.60
2019-04-10T12:22:40.598Z,139.00
2019-04-10T12:23:39.457Z,140.20
2019-04-10T12:25:39.517Z,127.50
2019-04-10T12:26:40.151Z,122.30
2019-04-10T12:27:39.592Z,131.50
2019-04-10T12:28:40.306Z,128.40
2019-04-10T12:29:40.509Z,130.00
2019-04-10T12:30:39.670Z,117.80
2019-04-10T12:31:39.811Z,117.50
2019-04-10T12:32:40.966Z,121.50
2019-04-10T12:33:39.790Z,125.60
2019-04-10T12:34:40.288Z,129.90
2019-04-10T12:35:40.354Z,130.20
2019-04-10T12:36:39.853Z,138.60
2019-04-10T12:37:39.885Z,127.40
2019-04-10T12:38:39.915Z,128.30
2019-04-10T12:39:39.948Z,129.00
2019-04-10T12:40:40.524Z,134.20
2019-04-10T12:41:40.008Z,120.90
2019-04-10T12:42:40.654Z,113.70
2019-04-10T12:43:41.106Z,114.50
2019-04-10T12:44:40.931Z,114.90
2019-04-10T12:45:40.335Z,119.30
2019-04-10T12:46:41.424Z,132.00
2019-04-10T12:47:40.211Z,135.10
2019-04-10T12:48:41.059Z,125.10
2019-04-10T12:49:41.284Z,117.30
2019-04-10T12:50:41.279Z,116.70
2019-04-10T12:51:40.313Z,116.30
2019-04-10T12:52:40.904Z,116.80
2019-04-10T12:53:40.394Z,117.70
2019-04-10T12:54:40.567Z,125.20
2019-04-10T12:55:40.434Z,121.40
2019-04-10T12:56:40.464Z,119.00
2019-04-10T12:57:41.348Z,114.50
2019-04-10T12:58:40.528Z,118.10
2019-04-10T12:59:41.649Z,119.00
2019-04-10T13:00:41.522Z,111.00
2019-04-10T13:01:40.860Z,103.90